Time;durP1;ratioP1;P1;durP2;ratioP2;P2;SDS_P1;SDS_P2;PMS_P1;PMS_P2;Temp;Humidity;BMP_temperature;BMP_pressure;BME280_temperature;BME280_humidity;BME280_pressure;Samples;Min_cycle;Max_cycle;Signal;HPM_P1;HPM_P2
2021/12/08 00:01:10;;;;;;;6.73;4.17;;;8.60;1.00;;;;;;5092767;28;20577;-73
2021/12/08 00:03:38;;;;;;;7.50;3.77;;;8.60;1.00;;;;;;5092564;28;20201;-73
2021/12/08 00:06:07;;;;;;;14.80;8.53;;;8.60;1.00;;;;;;5092671;28;20237;-73
2021/12/08 00:08:34;;;;;;;10.17;4.60;;;8.60;1.00;;;;;;5092740;28;20233;-73
2021/12/08 00:13:47;;;;;;;11.63;6.73;;;8.60;1.00;;;;;;5092198;28;20337;-72
2021/12/08 00:16:14;;;;;;;8.57;4.87;;;8.70;1.00;;;;;;5092499;28;20201;-72
2021/12/08 00:18:46;;;;;;;4.90;3.33;;;8.60;1.00;;;;;;5091935;28;20209;-73
2021/12/08 00:21:17;;;;;;;6.57;4.77;;;8.60;1.00;;;;;;5091074;28;20255;-72
2021/12/08 00:23:44;;;;;;;7.40;2.70;;;8.70;1.00;;;;;;5091838;28;20205;-73
2021/12/08 00:26:11;;;;;;;4.63;1.20;;;8.70;1.00;;;;;;5092321;28;20205;-72
2021/12/08 00:28:38;;;;;;;7.07;1.80;;;8.50;1.00;;;;;;5091602;28;20294;-74
2021/12/08 00:31:07;;;;;;;2.30;1.20;;;8.40;1.00;;;;;;5092272;28;20247;-74
2021/12/08 00:33:35;;;;;;;4.20;1.47;;;8.30;1.00;;;;;;5092568;28;20205;-74
2021/12/08 00:36:05;;;;;;;3.40;1.53;;;8.30;1.00;;;;;;5091848;28;20202;-75
2021/12/08 00:38:34;;;;;;;4.30;1.33;;;8.30;1.00;;;;;;5092592;28;20241;-73
2021/12/08 00:41:01;;;;;;;6.77;0.97;;;8.20;1.00;;;;;;5091627;28;20205;-73
2021/12/08 00:43:28;;;;;;;4.50;1.87;;;8.20;1.00;;;;;;5092138;28;20197;-73
2021/12/08 00:45:56;;;;;;;6.70;1.70;;;8.20;1.00;;;;;;5091376;28;20258;-73
2021/12/08 00:48:23;;;;;;;1.83;1.20;;;8.20;1.00;;;;;;5091865;28;20273;-72
2021/12/08 00:50:51;;;;;;;3.83;1.40;;;8.20;1.00;;;;;;5091289;28;20262;-73
2021/12/08 00:53:18;;;;;;;5.43;1.30;;;8.20;1.00;;;;;;5091675;28;20562;-73
2021/12/08 00:55:47;;;;;;;7.00;1.70;;;8.10;1.00;;;;;;5091323;28;20197;-73
2021/12/08 00:58:14;;;;;;;8.43;2.47;;;8.10;1.00;;;;;;5091570;28;20578;-73
2021/12/08 01:00:43;;;;;;;8.03;1.20;;;8.10;1.00;;;;;;5091136;28;20672;-74
2021/12/08 01:03:11;;;;;;;2.43;0.70;;;8.10;1.00;;;;;;5091567;28;20206;-73
2021/12/08 01:05:40;;;;;;;3.27;1.00;;;8.10;1.00;;;;;;5090828;28;20228;-74
2021/12/08 01:08:08;;;;;;;3.53;0.83;;;8.10;1.00;;;;;;5091266;28;20773;-74
2021/12/08 01:10:36;;;;;;;6.80;1.10;;;8.20;1.00;;;;;;5091922;28;20325;-73
2021/12/08 01:13:07;;;;;;;3.10;0.90;;;8.20;1.00;;;;;;5091775;28;20205;-73
2021/12/08 01:15:37;;;;;;;3.83;0.93;;;8.20;1.00;;;;;;5091569;28;20205;-74
2021/12/08 01:18:04;;;;;;;5.30;1.73;;;8.20;1.00;;;;;;5091668;28;20209;-74
2021/12/08 01:20:31;;;;;;;6.67;1.00;;;8.20;1.00;;;;;;5091282;28;20239;-74
2021/12/08 01:22:58;;;;;;;3.43;1.17;;;8.20;1.00;;;;;;5091021;28;20213;-74
2021/12/08 01:25:25;;;;;;;3.03;1.00;;;8.20;1.00;;;;;;5091465;28;20201;-74
2021/12/08 01:27:52;;;;;;;4.27;1.00;;;8.20;1.00;;;;;;5090759;28;20221;-74
2021/12/08 01:30:21;;;;;;;4.57;1.33;;;8.10;1.00;;;;;;5091191;28;20572;-74
2021/12/08 01:32:48;;;;;;;4.37;1.20;;;8.00;1.00;;;;;;5090243;28;20205;-73
2021/12/08 01:35:15;;;;;;;3.50;1.50;;;8.00;1.00;;;;;;5090981;28;20619;-77
2021/12/08 01:37:42;;;;;;;3.23;1.00;;;7.90;1.00;;;;;;5090843;28;20205;-77
2021/12/08 01:40:13;;;;;;;4.43;1.20;;;7.90;1.00;;;;;;5090769;28;20205;-76
2021/12/08 01:42:45;;;;;;;3.27;1.27;;;8.00;1.00;;;;;;5090532;28;20201;-73
2021/12/08 01:48:00;;;;;;;3.03;1.27;;;8.10;1.00;;;;;;5090137;28;20276;-72
2021/12/08 01:50:27;;;;;;;2.50;1.20;;;8.00;1.00;;;;;;5091016;28;20637;-72
2021/12/08 01:52:54;;;;;;;5.30;1.57;;;8.10;1.00;;;;;;5090381;28;20255;-72
2021/12/08 01:55:22;;;;;;;4.40;1.20;;;8.10;1.00;;;;;;5090880;28;20206;-73
2021/12/08 01:57:49;;;;;;;8.13;1.73;;;8.00;1.00;;;;;;5090400;28;20730;-73
2021/12/08 02:00:21;;;;;;;2.83;1.47;;;8.00;1.00;;;;;;5078136;28;20731;-73
2021/12/08 02:02:48;;;;;;;1.87;0.90;;;8.00;1.00;;;;;;5069790;28;20665;-73
2021/12/08 02:05:17;;;;;;;4.30;1.53;;;8.00;1.00;;;;;;5070605;28;20206;-73
2021/12/08 02:07:44;;;;;;;1.73;0.93;;;8.00;1.00;;;;;;5070147;28;20297;-73
2021/12/08 02:10:13;;;;;;;9.93;1.83;;;8.10;1.00;;;;;;5070531;28;20619;-73
2021/12/08 02:12:41;;;;;;;2.47;1.00;;;8.10;1.00;;;;;;5070023;28;20562;-75
2021/12/08 02:15:12;;;;;;;6.90;1.80;;;8.10;1.00;;;;;;5070694;28;20202;-74
2021/12/08 02:17:39;;;;;;;12.37;1.63;;;8.10;1.00;;;;;;5069722;28;20199;-73
2021/12/08 02:20:10;;;;;;;4.93;1.30;;;8.00;1.00;;;;;;5070571;28;20202;-74
2021/12/08 02:22:39;;;;;;;4.13;0.47;;;7.90;1.00;;;;;;5070527;28;20202;-75
2021/12/08 02:25:07;;;;;;;3.63;0.77;;;7.90;1.00;;;;;;5070638;28;20588;-74
2021/12/08 02:27:35;;;;;;;3.53;1.57;;;7.90;1.00;;;;;;5070764;28;20206;-76
2021/12/08 02:30:12;;;;;;;2.43;1.00;;;7.90;1.00;;;;;;5070469;28;20202;-74
2021/12/08 02:46:49;;;;;;;4.20;0.90;;;7.70;1.00;;;;;;5073531;28;20205;-71
2021/12/08 02:49:18;;;;;;;5.53;1.07;;;7.60;1.00;;;;;;5073648;28;20233;-71
2021/12/08 02:51:45;;;;;;;5.43;2.00;;;7.60;1.00;;;;;;5073326;28;20203;-71
2021/12/08 02:54:14;;;;;;;8.77;3.40;;;7.60;1.00;;;;;;5073692;28;20214;-71
2021/12/08 02:56:41;;;;;;;2.90;1.00;;;7.70;1.00;;;;;;5073584;28;20232;-71
2021/12/08 02:59:09;;;;;;;3.70;1.03;;;7.70;1.00;;;;;;5073649;28;20567;-72
2021/12/08 03:01:37;;;;;;;9.70;1.30;;;7.70;1.00;;;;;;5073698;28;20251;-72
2021/12/08 03:04:06;;;;;;;4.63;1.10;;;7.70;1.00;;;;;;5073659;28;20646;-72
2021/12/08 03:06:33;;;;;;;3.03;0.70;;;7.60;1.00;;;;;;5073902;28;20206;-74
2021/12/08 03:09:00;;;;;;;1.13;0.70;;;7.60;1.00;;;;;;5073237;28;20230;-74
2021/12/08 03:11:29;;;;;;;6.30;1.33;;;7.70;1.00;;;;;;5073415;28;20202;-73
2021/12/08 03:14:04;;;;;;;3.50;0.77;;;7.70;1.00;;;;;;5073219;28;20252;-73
2021/12/08 03:16:31;;;;;;;3.67;0.90;;;7.70;1.00;;;;;;5073721;28;20241;-72
2021/12/08 03:18:58;;;;;;;2.30;0.83;;;7.60;1.00;;;;;;5073426;28;20209;-72
2021/12/08 03:21:30;;;;;;;3.53;0.70;;;7.50;1.00;;;;;;5073188;28;20202;-74
2021/12/08 03:24:09;;;;;;;3.73;0.80;;;7.50;1.00;;;;;;5072640;28;20202;-73
2021/12/08 03:26:46;;;;;;;2.13;0.70;;;7.50;1.00;;;;;;5073497;28;20202;-73
2021/12/08 03:29:26;;;;;;;2.53;0.73;;;7.40;1.00;;;;;;5072786;28;20230;-74
2021/12/08 03:31:55;;;;;;;3.50;0.50;;;7.40;1.00;;;;;;5072620;28;20206;-74
2021/12/08 03:34:25;;;;;;;1.43;0.40;;;7.30;1.00;;;;;;5073303;28;20237;-75
2021/12/08 03:36:53;;;;;;;2.57;0.83;;;7.30;1.00;;;;;;5072569;28;20249;-77
2021/12/08 03:39:20;;;;;;;1.33;0.60;;;7.30;1.00;;;;;;5073022;28;20206;-75
2021/12/08 03:41:48;;;;;;;3.87;1.00;;;7.40;1.00;;;;;;5072308;28;20210;-76
2021/12/08 03:44:16;;;;;;;3.23;0.90;;;7.50;1.00;;;;;;5072663;28;20255;-75
2021/12/08 03:46:43;;;;;;;4.70;0.77;;;7.50;1.00;;;;;;5072482;28;20210;-76
2021/12/08 03:49:14;;;;;;;4.50;0.80;;;7.40;1.00;;;;;;5072656;28;20271;-75
2021/12/08 03:51:41;;;;;;;2.33;0.93;;;7.40;1.00;;;;;;5072235;28;20202;-75
2021/12/08 03:54:09;;;;;;;2.57;0.47;;;7.50;1.00;;;;;;5072713;28;20202;-75
2021/12/08 03:56:36;;;;;;;2.53;0.70;;;7.60;1.00;;;;;;5072597;28;20252;-74
2021/12/08 03:59:05;;;;;;;3.00;0.70;;;7.60;1.00;;;;;;5072652;28;20670;-74
2021/12/08 04:01:32;;;;;;;1.00;0.63;;;7.50;1.00;;;;;;5072771;28;20673;-76
2021/12/08 04:04:04;;;;;;;2.73;0.70;;;7.50;1.00;;;;;;5071940;28;20198;-74
2021/12/08 04:06:34;;;;;;;3.33;0.80;;;7.50;1.00;;;;;;5072711;28;20293;-74
2021/12/08 04:09:06;;;;;;;2.30;0.50;;;7.50;1.00;;;;;;5072226;28;20641;-75
2021/12/08 04:11:33;;;;;;;1.90;0.63;;;7.50;1.00;;;;;;5072578;28;20210;-73
2021/12/08 04:14:04;;;;;;;5.00;1.23;;;7.40;1.00;;;;;;5071692;28;20255;-71
2021/12/08 04:16:38;;;;;;;4.50;0.97;;;7.30;1.00;;;;;;5072294;28;20565;-73
2021/12/08 04:19:08;;;;;;;1.93;1.07;;;7.30;1.00;;;;;;5072422;28;20201;-71
2021/12/08 04:21:37;;;;;;;1.37;0.60;;;7.30;1.00;;;;;;5072357;28;20267;-72
2021/12/08 04:24:05;;;;;;;3.33;1.33;;;7.30;1.00;;;;;;5072421;28;20201;-74
2021/12/08 04:26:37;;;;;;;7.13;0.90;;;7.30;1.00;;;;;;5072221;28;20562;-72
2021/12/08 04:29:05;;;;;;;2.17;0.63;;;7.30;1.00;;;;;;5072194;28;20271;-73
2021/12/08 04:31:37;;;;;;;2.50;0.73;;;7.30;1.00;;;;;;5072254;28;20263;-74
2021/12/08 04:34:07;;;;;;;2.27;0.90;;;7.30;1.00;;;;;;5072165;28;20589;-74
2021/12/08 04:36:43;;;;;;;2.90;1.03;;;7.20;1.00;;;;;;5072112;28;20205;-73
2021/12/08 04:39:15;;;;;;;1.33;0.60;;;7.30;1.00;;;;;;5071524;28;20252;-73
2021/12/08 04:41:47;;;;;;;3.30;1.07;;;7.30;1.00;;;;;;5071022;28;20214;-73
2021/12/08 04:44:25;;;;;;;1.53;0.70;;;7.30;1.00;;;;;;5071674;28;20206;-74
2021/12/08 04:47:14;;;;;;;2.27;0.60;;;7.30;1.00;;;;;;5071214;28;20202;-74
2021/12/08 04:52:37;;;;;;;6.60;0.97;;;7.30;1.00;;;;;;5071309;28;20205;-73
2021/12/08 05:04:02;;;;;;;3.37;0.97;;;7.30;1.00;;;;;;5070024;28;20707;-73
2021/12/08 05:06:39;;;;;;;2.83;1.30;;;7.20;1.00;;;;;;5071218;28;20201;-75
2021/12/08 05:09:11;;;;;;;5.40;0.80;;;7.20;1.00;;;;;;5071003;28;20255;-73
2021/12/08 05:11:44;;;;;;;1.77;1.07;;;7.10;1.00;;;;;;5070799;28;20210;-74
2021/12/08 05:14:16;;;;;;;2.37;0.63;;;7.10;1.00;;;;;;5071239;28;20206;-74
2021/12/08 05:16:45;;;;;;;2.77;0.87;;;7.00;1.00;;;;;;5070757;28;20289;-74
2021/12/08 05:19:19;;;;;;;3.47;0.73;;;7.00;1.00;;;;;;5071224;28;20248;-74
2021/12/08 05:21:49;;;;;;;1.10;0.50;;;7.00;1.00;;;;;;5070586;28;20211;-74
2021/12/08 05:24:20;;;;;;;1.83;0.70;;;7.00;1.00;;;;;;5070979;28;20251;-74
2021/12/08 05:26:50;;;;;;;4.97;0.97;;;7.00;1.00;;;;;;5070317;28;20627;-74
2021/12/08 05:29:21;;;;;;;3.87;0.97;;;6.90;1.00;;;;;;5070640;28;20782;-75
2021/12/08 05:31:49;;;;;;;2.53;0.70;;;6.90;1.00;;;;;;5070606;28;20198;-74
2021/12/08 05:34:18;;;;;;;4.30;0.57;;;7.00;1.00;;;;;;5070860;28;20207;-75
2021/12/08 05:36:45;;;;;;;1.30;0.73;;;7.00;1.00;;;;;;5070922;28;20396;-74
2021/12/08 05:39:16;;;;;;;2.40;1.50;;;6.90;1.00;;;;;;5070777;28;20206;-75
2021/12/08 05:41:44;;;;;;;1.90;0.90;;;6.90;1.00;;;;;;5070442;28;20206;-74
2021/12/08 05:44:12;;;;;;;1.23;0.70;;;6.80;1.00;;;;;;5070965;28;20206;-75
2021/12/08 05:46:42;;;;;;;4.33;1.50;;;6.80;1.00;;;;;;5070668;28;20653;-76
2021/12/08 05:49:12;;;;;;;3.80;1.27;;;6.80;1.00;;;;;;5070695;28;20287;-75
2021/12/08 05:51:42;;;;;;;2.13;1.10;;;6.80;1.00;;;;;;5070290;28;20202;-75
2021/12/08 05:54:12;;;;;;;3.00;1.30;;;6.90;1.00;;;;;;5070948;28;20202;-73
2021/12/08 05:56:41;;;;;;;3.53;1.27;;;7.00;1.00;;;;;;5070255;28;20263;-76
2021/12/08 05:59:10;;;;;;;4.30;1.00;;;7.00;1.00;;;;;;5070738;28;20206;-75
2021/12/08 06:01:40;;;;;;;2.27;1.30;;;6.90;1.00;;;;;;5070604;28;20202;-74
2021/12/08 06:04:09;;;;;;;0.97;0.43;;;6.90;1.00;;;;;;5070443;28;20259;-76
2021/12/08 06:06:36;;;;;;;1.57;0.40;;;6.80;1.00;;;;;;5071047;28;20206;-76
2021/12/08 06:09:07;;;;;;;0.50;0.40;;;6.70;1.00;;;;;;5070756;28;20230;-73
2021/12/08 06:11:35;;;;;;;1.77;0.40;;;6.70;1.00;;;;;;5070756;28;20210;-72
2021/12/08 06:14:05;;;;;;;1.63;0.30;;;6.70;1.00;;;;;;5070395;28;20202;-73
2021/12/08 06:16:34;;;;;;;0.80;0.30;;;6.60;1.00;;;;;;5070556;28;20208;-76
2021/12/08 06:19:01;;;;;;;0.60;0.20;;;6.60;1.00;;;;;;5072031;28;20210;-73
2021/12/08 06:21:30;;;;;;;4.13;0.40;;;6.50;1.00;;;;;;5074363;28;20665;-75
2021/12/08 06:23:58;;;;;;;0.53;0.30;;;6.40;1.00;;;;;;5073552;28;20202;-74
2021/12/08 06:26:32;;;;;;;1.30;0.20;;;6.40;1.00;;;;;;5078122;28;20219;-73
2021/12/08 06:29:00;;;;;;;0.40;0.20;;;6.30;1.00;;;;;;5073758;28;20213;-72
2021/12/08 06:31:29;;;;;;;1.20;0.60;;;6.30;1.00;;;;;;5092749;28;20266;-71
2021/12/08 06:33:57;;;;;;;1.03;0.30;;;6.20;1.00;;;;;;5086430;28;20214;-72
2021/12/08 06:36:27;;;;;;;0.70;0.30;;;6.10;1.00;;;;;;5094146;28;20205;-72
2021/12/08 06:38:56;;;;;;;1.03;0.40;;;6.00;1.00;;;;;;5093666;28;20259;-73
2021/12/08 06:41:26;;;;;;;3.33;0.67;;;5.90;1.00;;;;;;5093666;28;20213;-72
2021/12/08 06:43:59;;;;;;;1.23;0.67;;;5.90;1.00;;;;;;5092687;28;20668;-72
2021/12/08 06:46:28;;;;;;;0.63;0.30;;;5.80;1.00;;;;;;5092367;28;20259;-70
2021/12/08 06:49:00;;;;;;;1.20;0.47;;;5.70;1.00;;;;;;5093673;28;20201;-72
2021/12/08 06:51:34;;;;;;;0.60;0.50;;;5.70;1.00;;;;;;5093868;28;20265;-74
2021/12/08 06:54:06;;;;;;;0.57;0.40;;;5.70;1.00;;;;;;5093378;28;20223;-74
2021/12/08 06:56:37;;;;;;;1.70;0.30;;;5.60;1.00;;;;;;5094111;28;20254;-72
2021/12/08 06:59:09;;;;;;;1.53;0.90;;;5.70;1.00;;;;;;5094069;28;20224;-73
2021/12/08 07:01:44;;;;;;;0.97;0.73;;;5.80;1.00;;;;;;5093796;28;20258;-72
2021/12/08 07:04:27;;;;;;;2.50;1.60;;;5.90;1.00;;;;;;5093250;28;20239;-72
2021/12/08 07:07:00;;;;;;;1.63;0.83;;;6.10;1.00;;;;;;5093183;28;20228;-73
2021/12/08 07:09:31;;;;;;;0.47;0.47;;;6.10;1.00;;;;;;5093294;28;20233;-71
2021/12/08 07:12:05;;;;;;;2.53;0.70;;;6.10;1.00;;;;;;5092966;28;20621;-71
2021/12/08 07:14:35;;;;;;;1.40;0.87;;;6.00;1.00;;;;;;5093609;28;20265;-71
2021/12/08 07:17:08;;;;;;;1.43;0.70;;;5.90;1.00;;;;;;5093462;28;20202;-73
2021/12/08 07:19:44;;;;;;;5.30;2.87;;;5.90;1.00;;;;;;5093694;28;20202;-78
2021/12/08 07:22:16;;;;;;;1.13;0.50;;;6.00;1.00;;;;;;5087109;28;20668;-73
2021/12/08 07:24:46;;;;;;;0.47;0.40;;;6.00;1.00;;;;;;5092975;28;20263;-71
2021/12/08 07:27:16;;;;;;;0.93;0.77;;;6.20;1.00;;;;;;5081750;28;20210;-71
2021/12/08 07:29:47;;;;;;;0.53;0.20;;;6.20;1.00;;;;;;5090818;28;20266;-72
2021/12/08 07:32:19;;;;;;;2.00;0.30;;;6.10;1.00;;;;;;5092749;28;20784;-71
2021/12/08 07:34:47;;;;;;;0.57;0.20;;;6.00;1.00;;;;;;5092358;28;20239;-73
2021/12/08 07:37:17;;;;;;;0.20;0.20;;;6.10;1.00;;;;;;5092712;28;20205;-73
2021/12/08 07:39:51;;;;;;;1.43;0.67;;;6.10;99.90;;;;;;5092593;28;20252;-72
2021/12/08 07:42:22;;;;;;;1.47;0.13;;;6.20;1.00;;;;;;5092657;28;20341;-72
2021/12/08 07:44:54;;;;;;;1.37;0.30;;;6.20;99.90;;;;;;5092169;28;20668;-71
2021/12/08 07:47:23;;;;;;;1.00;0.30;;;6.10;99.90;;;;;;5092929;28;20741;-71
2021/12/08 07:49:55;;;;;;;1.33;0.53;;;6.10;99.90;;;;;;5091784;28;20232;-71
2021/12/08 07:52:25;;;;;;;0.20;0.20;;;6.20;99.90;;;;;;5092821;28;20205;-73
2021/12/08 07:54:53;;;;;;;0.30;0.20;;;6.20;99.90;;;;;;5092197;28;20201;-72
2021/12/08 07:57:25;;;;;;;0.70;0.23;;;6.20;99.90;;;;;;5092806;28;20228;-73
2021/12/08 07:59:58;;;;;;;4.43;0.60;;;6.30;99.90;;;;;;5092381;28;20205;-73
2021/12/08 08:02:26;;;;;;;2.17;0.50;;;6.30;99.90;;;;;;5092558;28;20259;-73
2021/12/08 08:04:55;;;;;;;0.47;0.33;;;6.20;99.90;;;;;;5091924;28;20209;-73
2021/12/08 08:07:22;;;;;;;1.53;0.60;;;6.30;99.90;;;;;;5092604;28;20258;-74
2021/12/08 08:09:58;;;;;;;1.53;0.37;;;6.40;99.90;;;;;;5092250;28;20225;-74
2021/12/08 08:12:29;;;;;;;0.27;0.20;;;6.50;99.90;;;;;;5091779;28;20208;-73
2021/12/08 08:15:01;;;;;;;2.03;0.50;;;6.60;99.90;;;;;;5091913;28;20202;-71
2021/12/08 08:17:35;;;;;;;1.87;0.50;;;6.70;99.90;;;;;;5092258;28;20274;-73
2021/12/08 08:20:05;;;;;;;0.50;0.40;;;7.00;99.90;;;;;;5091899;28;20202;-74
2021/12/08 08:22:32;;;;;;;0.63;0.30;;;7.00;99.90;;;;;;5092489;28;20197;-74
2021/12/08 08:25:03;;;;;;;0.60;0.30;;;6.90;99.90;;;;;;5091986;28;20205;-74
2021/12/08 08:27:30;;;;;;;0.77;0.40;;;6.80;99.90;;;;;;5084115;28;20270;-75
2021/12/08 08:29:58;;;;;;;1.33;0.33;;;6.80;99.90;;;;;;5072360;28;20233;-75
2021/12/08 08:32:33;;;;;;;1.53;0.50;;;6.70;99.90;;;;;;5079093;28;20206;-75
2021/12/08 08:35:04;;;;;;;1.30;0.60;;;6.80;99.90;;;;;;5071311;28;20205;-75
2021/12/08 08:37:32;;;;;;;1.73;1.60;;;6.90;99.90;;;;;;5071697;28;20584;-75
2021/12/08 08:40:02;;;;;;;7.10;3.60;;;6.90;99.90;;;;;;5078684;28;20205;-74
2021/12/08 08:42:33;;;;;;;5.63;2.70;;;7.00;99.90;;;;;;5091007;28;20737;-75
2021/12/08 08:45:06;;;;;;;1.50;1.20;;;7.10;99.90;;;;;;5086295;28;20625;-73
2021/12/08 08:47:37;;;;;;;1.40;0.40;;;7.00;99.90;;;;;;5072036;28;20255;-77
2021/12/08 08:50:07;;;;;;;2.50;0.40;;;7.00;99.90;;;;;;5071072;28;20317;-75
2021/12/08 08:52:37;;;;;;;1.03;0.67;;;7.00;99.90;;;;;;5085611;28;20271;-75
2021/12/08 08:55:10;;;;;;;3.60;0.50;;;7.00;99.90;;;;;;5083912;28;20254;-74
2021/12/08 08:57:39;;;;;;;0.97;0.50;;;7.10;99.90;;;;;;5084056;28;20214;-74
2021/12/08 09:00:13;;;;;;;1.63;0.90;;;6.90;99.90;;;;;;5071611;28;20673;-75
2021/12/08 09:02:40;;;;;;;5.20;0.70;;;6.90;99.90;;;;;;5071470;28;20206;-74
2021/12/08 09:05:11;;;;;;;0.57;0.30;;;6.80;99.90;;;;;;5077556;28;20251;-74
2021/12/08 09:07:42;;;;;;;0.73;0.50;;;6.80;99.90;;;;;;5089151;28;20209;-75
2021/12/08 09:10:13;;;;;;;0.40;0.20;;;6.80;99.90;;;;;;5087711;28;20256;-74
2021/12/08 09:12:44;;;;;;;0.40;0.30;;;6.70;99.90;;;;;;5091078;28;20284;-74
2021/12/08 09:15:17;;;;;;;0.50;0.30;;;6.80;99.90;;;;;;5078071;28;20214;-74
2021/12/08 09:17:47;;;;;;;1.07;0.83;;;6.80;99.90;;;;;;5069315;28;20283;-74
2021/12/08 09:20:23;;;;;;;0.23;0.20;;;6.80;99.90;;;;;;5071197;28;20210;-74
2021/12/08 09:22:57;;;;;;;0.40;0.30;;;6.90;99.90;;;;;;5076602;28;20295;-76
2021/12/08 09:25:30;;;;;;;0.40;0.40;;;7.00;99.90;;;;;;5075970;28;20635;-75
2021/12/08 09:28:06;;;;;;;0.53;0.40;;;7.10;99.90;;;;;;5089546;28;20628;-74
2021/12/08 09:30:38;;;;;;;0.53;0.53;;;7.00;99.90;;;;;;5091197;28;20233;-74
2021/12/08 09:33:08;;;;;;;0.30;0.20;;;7.20;99.90;;;;;;5091365;28;20208;-76
2021/12/08 09:35:39;;;;;;;1.80;0.40;;;7.50;99.90;;;;;;5071319;28;20207;-77
2021/12/08 09:38:10;;;;;;;0.57;0.50;;;7.40;99.90;;;;;;5076958;28;20198;-78
2021/12/08 09:40:42;;;;;;;1.57;0.60;;;7.20;99.90;;;;;;5090726;28;20627;-74
2021/12/08 09:43:12;;;;;;;1.80;0.30;;;7.30;99.90;;;;;;5090134;28;20205;-76
2021/12/08 09:45:45;;;;;;;2.07;0.50;;;7.80;99.90;;;;;;5073391;28;20637;-75
2021/12/08 09:48:13;;;;;;;2.00;0.50;;;7.80;99.90;;;;;;5077531;28;20206;-76
2021/12/08 09:50:40;;;;;;;0.80;0.80;;;7.70;99.90;;;;;;5070330;28;20291;-73
2021/12/08 09:53:08;;;;;;;0.50;0.40;;;7.60;99.90;;;;;;5070246;28;20256;-74
2021/12/08 09:55:35;;;;;;;0.83;0.50;;;7.90;99.90;;;;;;5076972;28;20634;-74
2021/12/08 09:58:04;;;;;;;0.67;0.50;;;8.00;99.90;;;;;;5082219;28;20291;-79
2021/12/08 10:00:35;;;;;;;0.57;0.30;;;8.90;99.90;;;;;;5087268;28;20255;-77
2021/12/08 10:03:05;;;;;;;1.70;0.27;;;9.10;99.90;;;;;;5074308;28;20201;-74
2021/12/08 10:05:35;;;;;;;1.40;0.63;;;8.50;99.90;;;;;;5082478;28;20210;-73
2021/12/08 10:08:04;;;;;;;1.23;0.30;;;9.50;99.90;;;;;;5082028;28;20629;-76
2021/12/08 10:10:31;;;;;;;1.87;0.40;;;8.80;99.90;;;;;;5072203;28;20226;-74
2021/12/08 10:12:59;;;;;;;1.10;0.40;;;8.70;99.90;;;;;;5080872;28;20263;-73
2021/12/08 10:15:27;;;;;;;1.07;0.50;;;8.80;99.90;;;;;;5089632;28;20287;-73
2021/12/08 10:17:56;;;;;;;2.43;0.40;;;8.70;99.90;;;;;;5070030;28;20629;-76
2021/12/08 10:20:27;;;;;;;0.83;0.60;;;8.20;99.90;;;;;;5070877;28;20206;-75
2021/12/08 10:23:11;;;;;;;1.80;0.50;;;8.00;99.90;;;;;;5069681;28;20665;-76
2021/12/08 10:25:40;;;;;;;1.00;0.70;;;7.70;99.90;;;;;;5088768;28;20255;-73
2021/12/08 10:28:11;;;;;;;1.33;1.23;;;7.60;99.90;;;;;;5083522;28;20194;-73
2021/12/08 10:30:41;;;;;;;1.93;0.60;;;7.70;99.90;;;;;;5098848;28;20233;-73
2021/12/08 10:33:36;;;;;;;0.70;0.40;;;7.90;99.90;;;;;;5081381;28;20202;-76
2021/12/08 10:36:19;;;;;;;1.13;0.70;;;8.60;99.90;;;;;;5094474;28;20243;-76
2021/12/08 10:38:47;;;;;;;0.30;0.23;;;8.60;99.90;;;;;;5089969;28;20239;-77
2021/12/08 10:41:13;;;;;;;1.47;0.57;;;8.40;99.90;;;;;;5090261;28;20214;-75
2021/12/08 10:43:40;;;;;;;0.60;0.40;;;8.10;99.90;;;;;;5089943;28;20254;-78
2021/12/08 10:46:10;;;;;;;3.00;0.40;;;8.00;99.90;;;;;;5090971;28;20214;-74
2021/12/08 10:48:43;;;;;;;0.50;0.50;;;8.00;99.90;;;;;;5090393;28;20255;-75
2021/12/08 10:54:30;;;;;;;1.17;0.50;;;8.00;99.90;;;;;;5104316;28;20243;-74
2021/12/08 10:56:58;;;;;;;2.17;0.40;;;7.90;99.90;;;;;;5102493;28;20201;-79
2021/12/08 10:59:27;;;;;;;1.33;0.50;;;7.90;99.90;;;;;;5085226;28;20209;-77
2021/12/08 11:01:59;;;;;;;0.23;0.17;;;8.10;99.90;;;;;;5070023;28;20202;-75
2021/12/08 11:04:30;;;;;;;0.20;0.20;;;8.10;99.90;;;;;;5090448;28;20205;-72
2021/12/08 11:07:07;;;;;;;0.27;0.20;;;7.90;99.90;;;;;;5093028;28;20212;-76
2021/12/08 11:09:42;;;;;;;0.50;0.20;;;7.50;99.90;;;;;;5086319;28;20627;-76
2021/12/08 11:12:10;;;;;;;0.23;0.23;;;7.30;99.90;;;;;;5090193;28;20282;-78
2021/12/08 11:14:45;;;;;;;0.20;0.20;;;7.20;99.90;;;;;;5093976;28;20255;-74
2021/12/08 11:17:26;;;;;;;0.93;0.40;;;7.20;99.90;;;;;;5085237;28;20664;-76
2021/12/08 11:20:18;;;;;;;0.67;0.37;;;7.20;99.90;;;;;;5085528;28;20204;-76
2021/12/08 11:23:00;;;;;;;0.60;0.20;;;7.20;99.90;;;;;;5090178;28;20218;-76
2021/12/08 11:25:34;;;;;;;0.50;0.30;;;7.20;99.90;;;;;;5097005;28;20210;-76
2021/12/08 11:28:20;;;;;;;1.03;0.40;;;7.20;99.90;;;;;;5093462;28;20236;-77
2021/12/08 11:30:49;;;;;;;2.40;0.40;;;7.30;99.90;;;;;;5091143;28;20283;-77
2021/12/08 11:33:19;;;;;;;0.30;0.20;;;7.20;99.90;;;;;;5081452;28;20608;-75
2021/12/08 11:35:47;;;;;;;0.40;0.30;;;7.30;99.90;;;;;;5087540;28;20205;-74
2021/12/08 11:38:24;;;;;;;0.40;0.30;;;7.50;99.90;;;;;;5107551;28;20354;-77
2021/12/08 11:40:51;;;;;;;1.33;0.40;;;7.60;99.90;;;;;;5100978;28;20224;-74
2021/12/08 11:43:30;;;;;;;0.63;0.37;;;7.60;99.90;;;;;;5094189;28;20206;-74
2021/12/08 11:46:13;;;;;;;0.87;0.40;;;7.70;99.90;;;;;;5092833;28;20292;-77
2021/12/08 11:48:52;;;;;;;0.20;0.20;;;7.70;99.90;;;;;;5087975;28;20205;-75
2021/12/08 11:51:19;;;;;;;0.30;0.23;;;7.80;99.90;;;;;;5095737;28;20227;-74
2021/12/08 11:53:47;;;;;;;0.37;0.30;;;8.00;99.90;;;;;;5092102;28;20745;-75
2021/12/08 11:56:39;;;;;;;0.30;0.30;;;7.70;99.90;;;;;;5090543;28;20198;-75
2021/12/08 11:59:09;;;;;;;1.37;0.30;;;7.60;99.90;;;;;;5091771;28;20201;-75
2021/12/08 12:01:37;;;;;;;0.43;0.30;;;7.60;99.90;;;;;;5091155;28;20202;-74
2021/12/08 12:04:06;;;;;;;1.00;0.30;;;7.60;99.90;;;;;;5091277;28;20205;-75
2021/12/08 12:06:34;;;;;;;0.70;0.47;;;7.60;99.90;;;;;;5091342;28;20205;-74
2021/12/08 12:09:05;;;;;;;0.60;0.50;;;7.80;99.90;;;;;;5080860;28;20206;-75
2021/12/08 12:11:33;;;;;;;0.37;0.30;;;8.10;99.90;;;;;;5090666;28;20229;-74
2021/12/08 12:14:01;;;;;;;0.47;0.30;;;7.80;99.90;;;;;;5091869;28;20624;-76
2021/12/08 12:16:28;;;;;;;0.97;0.27;;;7.60;99.90;;;;;;5086612;28;20206;-74
2021/12/08 12:18:59;;;;;;;0.50;0.30;;;7.50;99.90;;;;;;5079461;28;20252;-75
2021/12/08 12:21:37;;;;;;;0.40;0.20;;;7.60;99.90;;;;;;5075215;28;20214;-74
2021/12/08 12:24:31;;;;;;;0.57;0.40;;;7.70;99.90;;;;;;5088103;28;20250;-76
2021/12/08 12:27:16;;;;;;;0.20;0.20;;;7.60;99.90;;;;;;5084546;28;20287;-73
2021/12/08 12:29:58;;;;;;;1.37;0.30;;;7.50;99.90;;;;;;5094145;28;20321;-72
2021/12/08 12:32:30;;;;;;;2.10;0.40;;;7.50;99.90;;;;;;5080808;28;20229;-74
2021/12/08 12:35:10;;;;;;;1.70;0.30;;;7.60;99.90;;;;;;5089538;28;20212;-76
2021/12/08 12:37:38;;;;;;;0.40;0.40;;;7.80;99.90;;;;;;5075121;28;20627;-74
2021/12/08 12:40:11;;;;;;;0.40;0.40;;;7.70;99.90;;;;;;5091282;28;20267;-73
2021/12/08 12:42:53;;;;;;;0.40;0.30;;;7.50;99.90;;;;;;5088857;28;20221;-74
2021/12/08 12:45:21;;;;;;;0.30;0.30;;;7.30;99.90;;;;;;5083516;28;20205;-77
2021/12/08 12:48:19;;;;;;;0.67;0.33;;;7.10;99.90;;;;;;5083334;28;20644;-75
2021/12/08 12:50:59;;;;;;;0.60;0.50;;;7.00;99.90;;;;;;5083476;28;20205;-73
2021/12/08 12:53:39;;;;;;;0.67;0.30;;;6.90;99.90;;;;;;5078889;28;20206;-72
2021/12/08 12:56:10;;;;;;;0.70;0.57;;;7.10;99.90;;;;;;5087589;28;20289;-73
2021/12/08 12:58:52;;;;;;;0.60;0.30;;;6.90;99.90;;;;;;5083533;28;20198;-74
2021/12/08 13:01:27;;;;;;;0.53;0.50;;;6.90;99.90;;;;;;5073809;28;20688;-76
2021/12/08 13:03:57;;;;;;;1.10;0.37;;;7.00;99.90;;;;;;5097540;28;20215;-76
2021/12/08 13:06:45;;;;;;;0.33;0.20;;;7.10;99.90;;;;;;5084809;28;20365;-75
2021/12/08 13:09:41;;;;;;;0.20;0.10;;;7.20;99.90;;;;;;5079525;28;20202;-74
2021/12/08 13:12:12;;;;;;;0.40;0.20;;;7.10;99.90;;;;;;5089171;28;20286;-73
2021/12/08 13:14:39;;;;;;;1.27;0.30;;;7.00;99.90;;;;;;5090506;28;20696;-74
2021/12/08 13:17:22;;;;;;;0.87;0.47;;;6.80;99.90;;;;;;5090722;28;20201;-73
2021/12/08 13:19:52;;;;;;;0.60;0.30;;;6.70;99.90;;;;;;5088776;28;20660;-75
2021/12/08 13:22:42;;;;;;;1.97;0.40;;;6.80;99.90;;;;;;5090948;28;20235;-74
2021/12/08 13:25:28;;;;;;;0.20;0.20;;;6.80;99.90;;;;;;5085064;28;20293;-77
2021/12/08 13:28:10;;;;;;;0.50;0.30;;;7.00;99.90;;;;;;5090413;28;20205;-74
2021/12/08 13:30:44;;;;;;;0.63;0.30;;;6.90;99.90;;;;;;5088275;28;20214;-73
2021/12/08 13:33:27;;;;;;;2.07;1.00;;;7.00;99.90;;;;;;5078472;28;20337;-72
2021/12/08 13:35:55;;;;;;;1.23;1.13;;;7.10;99.90;;;;;;5089862;28;20259;-74
2021/12/08 13:38:23;;;;;;;0.60;0.53;;;7.00;99.90;;;;;;5077821;28;20210;-73
2021/12/08 13:40:53;;;;;;;0.77;0.30;;;7.00;99.90;;;;;;5082361;28;20213;-74
2021/12/08 13:43:37;;;;;;;0.97;0.53;;;7.20;99.90;;;;;;5098506;28;20220;-73
2021/12/08 13:46:06;;;;;;;1.00;0.90;;;7.30;99.90;;;;;;5083651;28;20288;-73
2021/12/08 13:48:34;;;;;;;0.50;0.47;;;7.60;99.90;;;;;;5087413;28;20268;-75
2021/12/08 13:51:18;;;;;;;2.33;0.40;;;7.70;99.90;;;;;;5081488;28;20231;-75
2021/12/08 13:53:46;;;;;;;1.37;1.27;;;7.60;99.90;;;;;;5083857;28;20247;-75
2021/12/08 13:56:13;;;;;;;0.30;0.30;;;7.70;99.90;;;;;;5085576;28;20246;-74
2021/12/08 13:58:42;;;;;;;2.83;0.30;;;7.90;99.90;;;;;;5089200;28;20198;-72